Time;durP1;ratioP1;P1;durP2;ratioP2;P2;SDS_P1;SDS_P2;PMS_P1;PMS_P2;Temp;Humidity;BMP_temperature;BMP_pressure;BME280_temperature;BME280_humidity;BME280_pressure;Samples;Min_cycle;Max_cycle;Signal;HPM_P1;HPM_P2
2023/09/03 00:01:45;;;;;;;10.07;6.72;;;18.20;93.10;;;;;;7391111;19;20068;-74
2023/09/03 00:04:15;;;;;;;11.32;6.55;;;18.10;93.00;;;;;;7392028;19;20082;-73
2023/09/03 00:06:45;;;;;;;9.82;6.47;;;18.10;94.10;;;;;;7392778;19;20014;-73
2023/09/03 00:09:16;;;;;;;8.45;6.18;;;18.10;94.70;;;;;;7392376;19;20098;-74
2023/09/03 00:11:46;;;;;;;12.70;6.72;;;18.10;93.50;;;;;;7390670;19;20466;-72
2023/09/03 00:14:16;;;;;;;9.10;6.15;;;18.10;92.30;;;;;;7392387;19;20006;-73
2023/09/03 00:16:48;;;;;;;7.40;6.53;;;18.20;90.40;;;;;;7392222;19;20023;-74
2023/09/03 00:19:18;;;;;;;7.18;5.93;;;18.20;87.20;;;;;;7392639;19;20010;-73
2023/09/03 00:21:48;;;;;;;6.30;5.15;;;18.10;84.70;;;;;;7390032;19;20085;-73
2023/09/03 00:24:18;;;;;;;7.50;5.30;;;18.10;91.30;;;;;;7392193;19;20007;-73
2023/09/03 00:26:49;;;;;;;9.40;5.57;;;18.10;92.00;;;;;;7392773;19;20087;-75
2023/09/03 00:29:18;;;;;;;9.35;5.82;;;18.10;91.30;;;;;;7390241;19;20514;-73
2023/09/03 00:31:51;;;;;;;7.38;5.82;;;18.10;91.80;;;;;;7389593;19;20078;-74
2023/09/03 00:34:21;;;;;;;10.85;6.28;;;18.00;92.70;;;;;;7391502;19;20038;-74
2023/09/03 00:36:51;;;;;;;8.63;6.18;;;18.00;93.90;;;;;;7391924;19;20006;-73
2023/09/03 00:39:21;;;;;;;8.77;5.72;;;17.90;95.40;;;;;;7389643;19;20367;-72
2023/09/03 00:41:51;;;;;;;8.63;5.30;;;17.90;96.60;;;;;;7389672;19;20070;-73
2023/09/03 00:44:21;;;;;;;9.40;6.63;;;17.90;96.90;;;;;;7391577;19;20018;-73
2023/09/03 00:46:54;;;;;;;9.23;6.68;;;17.90;95.80;;;;;;7391581;19;20450;-73
2023/09/03 00:49:25;;;;;;;8.38;6.40;;;17.70;96.50;;;;;;7394712;19;20018;-73
2023/09/03 00:51:57;;;;;;;8.43;6.50;;;17.60;99.90;;;;;;7396319;19;20082;-73
2023/09/03 00:54:27;;;;;;;7.68;6.03;;;17.60;99.90;;;;;;7398594;19;20014;-73
2023/09/03 00:56:58;;;;;;;7.85;6.13;;;17.60;99.90;;;;;;7399145;19;20003;-73
2023/09/03 00:59:32;;;;;;;8.20;6.25;;;17.50;99.90;;;;;;7398677;19;20086;-73
2023/09/03 01:02:05;;;;;;;7.18;5.90;;;17.50;99.90;;;;;;7398890;19;20098;-74
2023/09/03 01:04:35;;;;;;;10.32;6.38;;;17.50;99.90;;;;;;7396301;19;20023;-76
2023/09/03 01:07:05;;;;;;;9.52;6.30;;;17.50;99.90;;;;;;7398187;19;20011;-73
2023/09/03 01:09:36;;;;;;;7.75;6.28;;;17.50;99.90;;;;;;7396112;19;20474;-74
2023/09/03 01:12:13;;;;;;;8.35;6.13;;;17.50;99.90;;;;;;7413149;19;20013;-73
2023/09/03 01:14:52;;;;;;;10.82;5.85;;;17.40;99.90;;;;;;7413365;19;20026;-73
2023/09/03 01:17:32;;;;;;;7.68;5.45;;;17.40;99.90;;;;;;7411361;19;20039;-72
2023/09/03 01:20:11;;;;;;;10.10;6.32;;;17.40;99.90;;;;;;7398562;19;20023;-71
2023/09/03 01:23:02;;;;;;;8.85;6.07;;;17.30;99.90;;;;;;7396092;19;20017;-73
2023/09/03 01:25:51;;;;;;;7.80;5.70;;;17.20;99.90;;;;;;7397752;19;20002;-73
2023/09/03 01:28:28;;;;;;;10.15;5.75;;;17.20;99.90;;;;;;7395097;19;20010;-72
2023/09/03 01:31:03;;;;;;;7.60;5.68;;;17.20;99.90;;;;;;7396214;19;20034;-73
2023/09/03 01:33:34;;;;;;;8.75;5.85;;;17.20;99.90;;;;;;7396928;19;20030;-72
2023/09/03 01:36:06;;;;;;;6.68;5.78;;;17.20;99.90;;;;;;7396987;19;20033;-72
2023/09/03 01:38:36;;;;;;;9.32;6.80;;;17.20;99.90;;;;;;7397178;19;20031;-72
2023/09/03 01:41:07;;;;;;;7.93;5.60;;;17.10;99.90;;;;;;7395513;19;20014;-72
2023/09/03 01:43:41;;;;;;;7.63;6.00;;;17.00;99.90;;;;;;7395420;19;20014;-72
2023/09/03 01:46:14;;;;;;;9.32;6.45;;;17.10;99.90;;;;;;7396902;19;20388;-72
2023/09/03 01:48:59;;;;;;;7.50;6.28;;;17.00;99.90;;;;;;7395232;19;20010;-71
2023/09/03 01:51:38;;;;;;;10.30;6.68;;;17.00;99.90;;;;;;7395036;19;20011;-71
2023/09/03 01:54:15;;;;;;;7.03;5.75;;;16.90;99.90;;;;;;7395683;19;20042;-72
2023/09/03 01:56:52;;;;;;;7.78;6.38;;;16.90;99.90;;;;;;7396502;19;20034;-71
2023/09/03 01:59:29;;;;;;;8.23;6.95;;;16.90;99.90;;;;;;7395364;19;20027;-72
2023/09/03 02:02:00;;;;;;;8.15;6.47;;;16.90;99.90;;;;;;7394062;19;20031;-72
2023/09/03 02:04:30;;;;;;;8.57;7.10;;;16.90;99.90;;;;;;7395632;19;20017;-73
2023/09/03 02:07:00;;;;;;;11.93;7.05;;;16.90;99.90;;;;;;7396518;19;20018;-73
2023/09/03 02:09:30;;;;;;;10.80;7.25;;;16.90;99.90;;;;;;7394310;19;20015;-73
2023/09/03 02:12:00;;;;;;;12.98;7.47;;;16.80;99.90;;;;;;7394053;19;20070;-72
2023/09/03 02:14:33;;;;;;;8.82;7.55;;;16.90;99.90;;;;;;7395373;19;20687;-71
2023/09/03 02:17:03;;;;;;;10.80;8.00;;;16.90;99.90;;;;;;7395753;19;20014;-72
2023/09/03 02:19:33;;;;;;;8.50;7.15;;;16.90;99.90;;;;;;7395886;19;20017;-73
2023/09/03 02:22:03;;;;;;;11.18;7.57;;;16.90;99.90;;;;;;7395429;19;20783;-72
2023/09/03 02:24:32;;;;;;;12.82;8.27;;;16.80;99.90;;;;;;7395149;19;20093;-71
2023/09/03 02:27:02;;;;;;;11.70;8.05;;;16.80;99.90;;;;;;7395467;19;20007;-71
2023/09/03 02:29:35;;;;;;;11.13;8.38;;;16.80;99.90;;;;;;7394578;19;20011;-71
2023/09/03 02:32:05;;;;;;;10.00;7.85;;;16.80;99.90;;;;;;7395025;19;20030;-71
2023/09/03 02:34:36;;;;;;;9.50;7.85;;;16.90;99.90;;;;;;7395145;19;20012;-72
2023/09/03 02:37:06;;;;;;;12.95;8.15;;;16.90;99.90;;;;;;7394605;19;20011;-70
2023/09/03 02:39:36;;;;;;;12.68;8.85;;;16.80;99.90;;;;;;7395168;19;20033;-71
2023/09/03 02:42:07;;;;;;;10.48;8.02;;;16.80;99.90;;;;;;7394554;19;20027;-71
2023/09/03 02:44:39;;;;;;;10.57;8.00;;;16.90;99.90;;;;;;7395118;19;20401;-72
2023/09/03 02:47:09;;;;;;;12.77;7.90;;;16.90;99.90;;;;;;7394597;19;20479;-72
2023/09/03 02:49:39;;;;;;;10.82;8.02;;;16.90;99.90;;;;;;7392136;19;20014;-72
2023/09/03 02:52:09;;;;;;;10.38;8.82;;;16.90;99.90;;;;;;7394238;19;20426;-71
2023/09/03 02:54:39;;;;;;;11.00;8.13;;;16.90;99.90;;;;;;7395006;19;20484;-72
2023/09/03 02:57:09;;;;;;;11.77;9.10;;;16.90;99.90;;;;;;7394405;19;20014;-71
2023/09/03 02:59:45;;;;;;;11.02;8.30;;;16.90;99.90;;;;;;7395044;19;20346;-71
2023/09/03 03:02:14;;;;;;;9.68;8.05;;;17.00;99.90;;;;;;7394560;19;20367;-71
2023/09/03 03:04:44;;;;;;;14.70;8.52;;;16.90;99.90;;;;;;7393630;19;20017;-71
2023/09/03 03:07:14;;;;;;;14.55;8.45;;;16.90;99.90;;;;;;7394210;19;20102;-72
2023/09/03 03:09:44;;;;;;;11.02;8.07;;;16.80;99.90;;;;;;7392838;19;20010;-73
2023/09/03 03:12:14;;;;;;;13.23;8.52;;;16.80;99.90;;;;;;7392971;19;20027;-72
2023/09/03 03:14:46;;;;;;;11.93;7.82;;;16.80;99.90;;;;;;7393095;19;20489;-71
2023/09/03 03:17:16;;;;;;;14.00;8.57;;;16.70;99.90;;;;;;7393769;19;20006;-72
2023/09/03 03:19:51;;;;;;;12.15;8.38;;;16.70;99.90;;;;;;7393476;19;20084;-71
2023/09/03 03:22:21;;;;;;;;;;;16.70;99.90;;;;;;7394273;19;20027;-71
2023/09/03 03:24:51;;;;;;;9.50;7.15;;;16.70;99.90;;;;;;7393306;19;19978;-72
2023/09/03 03:27:20;;;;;;;14.07;8.15;;;16.70;99.90;;;;;;7392168;19;20011;-70
2023/09/03 03:29:54;;;;;;;11.70;8.30;;;16.80;99.90;;;;;;7392184;19;20502;-71
2023/09/03 03:32:24;;;;;;;10.95;8.05;;;16.70;99.90;;;;;;7393387;19;20458;-71
2023/09/03 03:34:54;;;;;;;9.95;7.65;;;16.70;99.90;;;;;;7392924;19;20495;-71
2023/09/03 03:37:24;;;;;;;12.00;7.45;;;16.70;99.90;;;;;;7392906;19;20077;-71
2023/09/03 03:39:54;;;;;;;10.85;7.50;;;16.70;99.90;;;;;;7392693;19;20082;-73
2023/09/03 03:42:24;;;;;;;11.57;7.32;;;16.60;99.90;;;;;;7392875;19;20495;-71
2023/09/03 03:44:56;;;;;;;8.75;7.55;;;16.60;99.90;;;;;;7392303;19;20467;-71
2023/09/03 03:47:26;;;;;;;9.95;8.20;;;16.60;99.90;;;;;;7392894;19;20388;-70
2023/09/03 03:49:57;;;;;;;9.25;8.10;;;16.60;99.90;;;;;;7391203;19;20548;-73
2023/09/03 03:52:26;;;;;;;10.45;8.25;;;16.60;99.90;;;;;;7390284;19;20484;-73
2023/09/03 03:54:56;;;;;;;13.85;8.18;;;16.50;99.90;;;;;;7388573;19;20167;-72
2023/09/03 03:57:26;;;;;;;10.93;7.60;;;16.40;99.90;;;;;;7389235;19;20025;-71
2023/09/03 03:59:59;;;;;;;8.60;7.40;;;16.40;99.90;;;;;;7387900;19;20019;-73
2023/09/03 04:02:29;;;;;;;10.40;7.68;;;16.40;99.90;;;;;;7388615;19;20384;-72
2023/09/03 04:04:59;;;;;;;9.45;7.60;;;16.40;99.90;;;;;;7388118;19;20018;-72
2023/09/03 04:07:29;;;;;;;10.00;8.02;;;16.30;99.90;;;;;;7388760;19;20035;-73
2023/09/03 04:09:59;;;;;;;10.85;8.13;;;16.30;99.90;;;;;;7387412;19;20050;-72
2023/09/03 04:12:30;;;;;;;10.73;7.60;;;16.20;99.90;;;;;;7389225;19;20055;-72
2023/09/03 04:15:02;;;;;;;12.90;7.68;;;16.20;99.90;;;;;;7388098;19;20007;-72
2023/09/03 04:17:32;;;;;;;8.85;7.68;;;16.20;99.90;;;;;;7388633;19;20011;-71
2023/09/03 04:20:02;;;;;;;7.88;6.72;;;16.20;99.90;;;;;;7387223;19;20010;-71
2023/09/03 04:22:32;;;;;;;11.43;8.10;;;16.20;99.90;;;;;;7388591;19;20007;-72
2023/09/03 04:25:02;;;;;;;9.27;8.02;;;16.20;99.90;;;;;;7394969;19;20019;-72
2023/09/03 04:27:32;;;;;;;11.50;7.93;;;16.20;99.90;;;;;;7395274;19;20471;-72
2023/09/03 04:30:07;;;;;;;10.50;7.43;;;16.20;99.90;;;;;;7393810;19;20094;-72
2023/09/03 04:32:37;;;;;;;10.93;7.60;;;16.10;99.90;;;;;;7399763;19;20020;-72
2023/09/03 04:35:08;;;;;;;10.45;8.18;;;16.20;99.90;;;;;;7398332;19;20011;-72
2023/09/03 04:37:38;;;;;;;9.07;7.75;;;16.20;99.90;;;;;;7396207;19;20489;-72
2023/09/03 04:40:10;;;;;;;9.02;7.10;;;16.20;99.90;;;;;;7394120;19;20029;-72
2023/09/03 04:42:41;;;;;;;13.73;7.53;;;16.20;99.90;;;;;;7394801;19;20015;-73
2023/09/03 04:45:13;;;;;;;12.77;7.47;;;16.30;99.90;;;;;;7394557;19;20011;-72
2023/09/03 04:47:43;;;;;;;12.00;7.53;;;16.30;99.90;;;;;;7399111;19;20038;-72
2023/09/03 04:50:13;;;;;;;9.88;6.82;;;16.50;99.90;;;;;;7393407;19;20018;-72
2023/09/03 04:52:48;;;;;;;8.70;7.07;;;16.50;99.90;;;;;;7394506;19;20499;-72
2023/09/03 04:55:18;;;;;;;10.38;7.05;;;16.60;99.90;;;;;;7394587;19;20018;-72
2023/09/03 04:57:48;;;;;;;10.02;7.15;;;16.60;99.90;;;;;;7394665;19;20042;-72
2023/09/03 05:00:21;;;;;;;8.27;6.60;;;16.60;99.90;;;;;;7393835;19;20081;-72
2023/09/03 05:02:51;;;;;;;10.95;6.95;;;16.70;99.90;;;;;;7393910;19;20014;-72
2023/09/03 05:05:21;;;;;;;10.02;7.03;;;16.70;99.90;;;;;;7393669;19;20373;-72
2023/09/03 05:07:51;;;;;;;8.88;6.90;;;16.70;99.90;;;;;;7393918;19;20039;-71
2023/09/03 05:10:21;;;;;;;8.90;7.20;;;16.70;99.90;;;;;;7392926;19;20010;-72
2023/09/03 05:12:51;;;;;;;8.05;6.88;;;16.60;99.90;;;;;;7393587;19;20125;-70
2023/09/03 05:15:24;;;;;;;9.50;7.50;;;16.60;99.90;;;;;;7393081;19;20478;-72
2023/09/03 05:17:54;;;;;;;9.80;6.78;;;16.70;99.90;;;;;;7393444;19;20035;-72
2023/09/03 05:20:24;;;;;;;7.57;6.40;;;16.70;99.90;;;;;;7392943;19;20039;-72
2023/09/03 05:22:54;;;;;;;9.88;6.82;;;16.70;99.90;;;;;;7393874;19;20099;-72
2023/09/03 05:25:23;;;;;;;8.63;6.30;;;16.80;99.90;;;;;;7393288;19;20034;-71
2023/09/03 05:27:53;;;;;;;7.80;6.50;;;16.90;99.90;;;;;;7393038;19;20014;-71
2023/09/03 05:30:26;;;;;;;7.25;6.35;;;17.00;99.90;;;;;;7392492;19;20064;-72
2023/09/03 05:32:56;;;;;;;9.75;6.82;;;17.00;99.90;;;;;;7392901;19;20018;-73
2023/09/03 05:35:26;;;;;;;7.85;6.40;;;17.10;99.90;;;;;;7391736;19;20499;-72
2023/09/03 05:37:56;;;;;;;7.72;6.00;;;17.20;99.90;;;;;;7393110;19;20018;-72
2023/09/03 05:40:26;;;;;;;8.27;5.57;;;17.10;99.90;;;;;;7392027;19;20090;-72
2023/09/03 05:42:56;;;;;;;7.43;5.95;;;17.00;99.90;;;;;;7393100;19;20019;-72
2023/09/03 05:45:28;;;;;;;8.05;5.70;;;17.10;99.90;;;;;;7392796;19;20103;-72
2023/09/03 05:47:58;;;;;;;7.07;6.03;;;17.00;99.90;;;;;;7392383;19;20018;-74
2023/09/03 05:50:31;;;;;;;7.07;5.38;;;16.90;99.90;;;;;;7391393;19;20019;-71
2023/09/03 05:53:01;;;;;;;10.63;6.10;;;17.00;99.90;;;;;;7392290;19;20022;-72
2023/09/03 05:55:31;;;;;;;8.63;6.18;;;17.00;99.90;;;;;;7392325;19;20310;-71
2023/09/03 05:58:03;;;;;;;7.75;5.47;;;17.20;99.90;;;;;;7392018;19;20480;-71
2023/09/03 06:00:36;;;;;;;9.65;5.85;;;17.20;99.90;;;;;;7391337;19;20011;-72
2023/09/03 06:03:08;;;;;;;5.97;5.38;;;17.40;99.90;;;;;;7391837;19;20019;-72
2023/09/03 06:05:39;;;;;;;7.03;6.00;;;17.40;99.90;;;;;;7391497;19;20011;-72
2023/09/03 06:08:09;;;;;;;6.07;4.70;;;17.60;95.70;;;;;;7392231;19;20014;-71
2023/09/03 06:10:40;;;;;;;8.13;5.85;;;17.50;82.40;;;;;;7391026;19;20102;-72
2023/09/03 06:13:10;;;;;;;12.13;5.78;;;17.60;87.80;;;;;;7391598;19;20018;-72
2023/09/03 06:15:43;;;;;;;7.38;5.43;;;17.80;88.10;;;;;;7391088;19;20014;-72
2023/09/03 06:18:13;;;;;;;10.23;4.97;;;18.00;63.90;;;;;;7391617;19;20082;-72
2023/09/03 06:20:43;;;;;;;6.43;5.20;;;17.90;65.20;;;;;;7390016;19;20029;-72
2023/09/03 06:23:15;;;;;;;12.27;6.05;;;18.00;57.10;;;;;;7391644;19;20086;-72
2023/09/03 06:25:45;;;;;;;8.18;4.88;;;18.00;51.90;;;;;;7390538;19;20507;-73
2023/09/03 06:28:16;;;;;;;7.38;5.20;;;18.10;51.10;;;;;;7390729;19;20038;-72
2023/09/03 06:30:48;;;;;;;7.65;4.85;;;18.20;50.40;;;;;;7390540;19;20028;-72
2023/09/03 06:33:18;;;;;;;7.93;5.47;;;18.30;46.90;;;;;;7391487;19;20474;-72
2023/09/03 06:35:48;;;;;;;8.40;5.28;;;18.50;38.60;;;;;;7390921;19;20014;-73
2023/09/03 06:38:18;;;;;;;6.80;5.60;;;18.70;40.20;;;;;;7391244;19;20082;-72
2023/09/03 06:40:50;;;;;;;8.00;5.72;;;18.50;22.60;;;;;;7389183;19;20493;-72
2023/09/03 06:43:20;;;;;;;6.55;4.70;;;18.70;36.20;;;;;;7390907;19;20051;-72
2023/09/03 06:45:53;;;;;;;6.97;5.10;;;18.70;36.80;;;;;;7388912;19;20081;-72
2023/09/03 06:48:23;;;;;;;10.27;5.70;;;18.80;35.10;;;;;;7390631;19;20505;-71
2023/09/03 06:50:53;;;;;;;10.32;5.13;;;18.80;32.40;;;;;;7388821;19;20495;-72
2023/09/03 06:53:23;;;;;;;7.95;5.38;;;18.90;31.80;;;;;;7388356;19;20011;-73
2023/09/03 06:55:53;;;;;;;10.00;5.65;;;18.90;31.10;;;;;;7390314;19;20105;-72
2023/09/03 06:58:23;;;;;;;8.52;5.80;;;18.90;30.80;;;;;;7390368;19;20031;-72
2023/09/03 07:00:56;;;;;;;7.80;5.13;;;18.80;34.80;;;;;;7389617;19;20344;-73
2023/09/03 07:03:26;;;;;;;8.85;5.28;;;18.80;33.60;;;;;;7390201;19;20402;-71
2023/09/03 07:05:56;;;;;;;7.57;5.75;;;18.80;33.30;;;;;;7389258;19;20022;-72
2023/09/03 07:08:26;;;;;;;8.63;5.70;;;18.90;41.60;;;;;;7389774;19;20018;-72
2023/09/03 07:11:01;;;;;;;7.90;5.15;;;18.80;31.60;;;;;;7388662;19;20025;-71
2023/09/03 07:13:31;;;;;;;7.97;5.28;;;18.90;34.70;;;;;;7387680;19;20015;-72
2023/09/03 07:16:08;;;;;;;8.02;5.07;;;19.00;33.70;;;;;;7389086;19;20025;-73
2023/09/03 07:18:38;;;;;;;8.57;5.60;;;19.00;28.90;;;;;;7389776;19;20027;-72
2023/09/03 07:21:09;;;;;;;7.15;5.07;;;18.90;30.90;;;;;;7388349;19;20014;-72
2023/09/03 07:23:39;;;;;;;6.82;5.20;;;19.20;19.20;;;;;;7388976;19;20367;-73
2023/09/03 07:26:10;;;;;;;7.53;6.00;;;19.40;21.10;;;;;;7389415;19;20022;-72
2023/09/03 07:28:42;;;;;;;9.25;5.80;;;19.50;18.70;;;;;;7387172;19;20018;-72
2023/09/03 07:31:14;;;;;;;7.53;5.53;;;19.60;12.10;;;;;;7387931;19;20014;-73
2023/09/03 07:33:44;;;;;;;8.10;5.25;;;19.80;6.80;;;;;;7387114;19;20014;-72
2023/09/03 07:36:15;;;;;;;8.98;5.10;;;19.50;7.00;;;;;;7389349;19;20014;-72
2023/09/03 07:38:45;;;;;;;7.22;5.45;;;19.50;12.30;;;;;;7388799;19;20014;-71
2023/09/03 07:41:15;;;;;;;7.60;5.10;;;19.80;11.90;;;;;;7387391;19;20013;-72
2023/09/03 07:43:44;;;;;;;7.25;5.80;;;19.90;7.40;;;;;;7386562;19;20419;-73
2023/09/03 07:46:17;;;;;;;8.73;5.45;;;20.00;5.00;;;;;;7390372;19;20018;-71
2023/09/03 07:48:47;;;;;;;14.50;5.20;;;20.10;2.40;;;;;;7388142;19;20014;-72
2023/09/03 07:51:19;;;;;;;6.18;5.20;;;20.30;1.40;;;;;;7387445;19;20089;-72
2023/09/03 07:53:49;;;;;;;6.93;4.75;;;20.50;1.00;;;;;;7385801;19;20034;-72
2023/09/03 07:56:19;;;;;;;8.55;5.18;;;20.60;1.00;;;;;;7388476;19;20181;-71
2023/09/03 07:58:49;;;;;;;6.25;4.80;;;20.60;1.00;;;;;;7395233;19;20405;-72
2023/09/03 08:01:22;;;;;;;7.75;4.70;;;20.70;1.00;;;;;;7395558;19;20015;-71
2023/09/03 08:03:52;;;;;;;6.25;4.97;;;20.60;1.00;;;;;;7395237;19;20094;-72
2023/09/03 08:06:22;;;;;;;5.80;5.03;;;20.10;8.80;;;;;;7395030;19;20017;-72
2023/09/03 08:08:54;;;;;;;8.65;5.18;;;20.80;1.00;;;;;;7394373;19;20058;-72
2023/09/03 08:11:24;;;;;;;9.27;5.38;;;20.90;1.00;;;;;;7391375;19;20047;-71
2023/09/03 08:14:01;;;;;;;7.07;4.72;;;20.70;1.00;;;;;;7391123;19;20014;-73
2023/09/03 08:16:33;;;;;;;7.88;5.13;;;21.00;1.00;;;;;;7394473;19;20018;-72
2023/09/03 08:19:03;;;;;;;6.40;5.18;;;21.20;1.00;;;;;;7394382;19;20078;-72
2023/09/03 08:21:33;;;;;;;8.27;4.97;;;21.40;1.00;;;;;;7391922;19;20027;-73
2023/09/03 08:24:03;;;;;;;7.20;5.00;;;21.40;1.00;;;;;;7393573;19;20035;-73
2023/09/03 08:26:33;;;;;;;6.07;5.10;;;21.50;1.00;;;;;;7394576;19;20021;-73
2023/09/03 08:29:03;;;;;;;6.75;5.40;;;21.90;1.00;;;;;;7393560;19;20014;-72
2023/09/03 08:31:35;;;;;;;5.05;4.40;;;22.20;1.00;;;;;;7390795;19;20053;-73
2023/09/03 08:34:05;;;;;;;6.05;4.72;;;22.10;1.00;;;;;;7390686;19;20486;-72
2023/09/03 08:36:35;;;;;;;6.55;4.90;;;22.20;1.00;;;;;;7393692;19;20035;-73
2023/09/03 08:39:06;;;;;;;6.03;4.80;;;22.40;1.00;;;;;;7393610;19;20022;-74
2023/09/03 08:41:40;;;;;;;5.65;4.20;;;22.20;1.00;;;;;;7390326;19;20018;-72
2023/09/03 08:44:28;;;;;;;6.00;4.25;;;22.10;1.00;;;;;;7392691;19;20100;-72
2023/09/03 08:47:02;;;;;;;6.97;4.65;;;22.00;1.00;;;;;;7395292;19;20031;-72
2023/09/03 08:49:34;;;;;;;5.10;4.45;;;22.30;1.00;;;;;;7392063;19;20105;-72
2023/09/03 08:52:04;;;;;;;5.38;4.03;;;22.60;1.00;;;;;;7392567;19;20039;-72
2023/09/03 08:54:34;;;;;;;5.57;3.47;;;22.60;1.00;;;;;;7389884;19;20011;-72
2023/09/03 08:57:05;;;;;;;5.43;4.03;;;22.60;1.00;;;;;;7392370;19;20014;-72
2023/09/03 08:59:35;;;;;;;7.47;4.22;;;22.70;1.00;;;;;;7392632;19;20015;-73
2023/09/03 09:02:11;;;;;;;5.50;3.83;;;22.60;1.00;;;;;;7391982;19;20027;-72
2023/09/03 09:04:42;;;;;;;5.75;3.58;;;22.90;1.00;;;;;;7395599;19;20007;-74
2023/09/03 09:07:13;;;;;;;4.35;3.60;;;23.10;1.00;;;;;;7391729;19;20463;-73
2023/09/03 09:09:43;;;;;;;5.93;3.47;;;22.90;1.00;;;;;;7391613;19;20139;-72
2023/09/03 09:12:23;;;;;;;4.90;3.17;;;23.10;1.00;;;;;;7393042;19;20002;-73
2023/09/03 09:14:58;;;;;;;3.33;2.75;;;23.20;1.00;;;;;;7389700;19;20045;-73
2023/09/03 09:17:31;;;;;;;5.55;3.25;;;23.10;1.00;;;;;;7393545;19;20019;-72
2023/09/03 09:20:01;;;;;;;4.40;3.40;;;23.40;1.00;;;;;;7394483;19;20101;-72
2023/09/03 09:22:31;;;;;;;3.40;2.95;;;23.10;1.00;;;;;;7396489;19;20039;-72
2023/09/03 09:25:01;;;;;;;6.05;2.90;;;22.90;1.00;;;;;;7395577;19;20085;-73
2023/09/03 09:27:30;;;;;;;3.92;2.97;;;23.30;1.00;;;;;;7394369;19;20017;-72
2023/09/03 09:30:11;;;;;;;3.45;2.75;;;23.30;1.00;;;;;;7396327;19;20422;-71
2023/09/03 09:32:45;;;;;;;3.90;2.50;;;23.30;1.00;;;;;;7395830;19;20046;-71
2023/09/03 09:35:26;;;;;;;4.25;3.25;;;23.50;1.00;;;;;;7393426;19;20034;-72
2023/09/03 09:37:56;;;;;;;8.20;3.22;;;23.40;1.00;;;;;;7395669;19;20014;-74
2023/09/03 09:40:30;;;;;;;10.15;4.05;;;23.50;1.00;;;;;;7395728;19;20024;-72
2023/09/03 09:43:03;;;;;;;3.78;2.53;;;23.60;1.00;;;;;;7396088;19;20474;-73
2023/09/03 09:45:34;;;;;;;3.78;2.25;;;23.50;1.00;;;;;;7395686;19;20046;-72
2023/09/03 09:48:12;;;;;;;2.85;2.50;;;23.50;1.00;;;;;;7396287;19;20010;-72
2023/09/03 09:50:44;;;;;;;6.07;2.80;;;23.80;1.00;;;;;;7394529;19;20038;-72
2023/09/03 09:53:26;;;;;;;3.08;2.50;;;23.80;1.00;;;;;;7395145;19;20351;-72
2023/09/03 09:56:01;;;;;;;3.13;2.80;;;23.80;1.00;;;;;;7395915;19;20014;-72
2023/09/03 09:58:38;;;;;;;2.42;2.00;;;23.80;1.00;;;;;;7393656;19;20007;-74
2023/09/03 10:01:09;;;;;;;5.05;2.08;;;24.30;1.00;;;;;;7394901;19;20034;-74
2023/09/03 10:03:46;;;;;;;4.85;2.10;;;24.10;1.00;;;;;;7395519;19;20082;-72
2023/09/03 10:06:18;;;;;;;2.97;2.00;;;24.00;1.00;;;;;;7394630;19;20022;-74
2023/09/03 10:08:49;;;;;;;2.00;1.70;;;24.00;1.00;;;;;;7392522;19;20034;-73
2023/09/03 10:11:21;;;;;;;2.30;1.92;;;24.10;1.00;;;;;;7393325;19;20031;-73
2023/09/03 10:13:51;;;;;;;2.10;1.90;;;24.20;1.00;;;;;;7394205;19;20021;-73
2023/09/03 10:16:22;;;;;;;3.05;1.50;;;24.40;1.00;;;;;;7393772;19;20039;-72
2023/09/03 10:18:57;;;;;;;2.67;1.70;;;24.40;1.00;;;;;;7393972;19;20018;-73
2023/09/03 10:21:28;;;;;;;3.20;2.22;;;24.40;1.00;;;;;;7393525;19;20032;-72
2023/09/03 10:24:20;;;;;;;2.90;1.83;;;24.40;1.00;;;;;;7395379;19;20040;-73
2023/09/03 10:26:54;;;;;;;1.80;1.40;;;24.30;1.00;;;;;;7394852;19;20030;-73
2023/09/03 10:29:26;;;;;;;2.17;1.00;;;24.50;1.00;;;;;;7395063;19;20007;-74
2023/09/03 10:32:01;;;;;;;1.85;1.40;;;24.60;1.00;;;;;;7392783;19;20010;-73
2023/09/03 10:34:34;;;;;;;2.38;1.55;;;24.60;1.00;;;;;;7392615;19;20018;-72
2023/09/03 10:37:11;;;;;;;2.85;1.40;;;24.90;1.00;;;;;;7394162;19;20056;-73
2023/09/03 10:39:43;;;;;;;4.15;1.50;;;24.70;1.00;;;;;;7393992;19;20030;-72
2023/09/03 10:42:30;;;;;;;2.58;1.10;;;25.00;1.00;;;;;;7393116;19;20014;-73
2023/09/03 10:45:02;;;;;;;1.98;1.00;;;25.00;1.00;;;;;;7393711;19;20038;-72
2023/09/03 10:47:32;;;;;;;4.40;1.45;;;25.10;1.00;;;;;;7391925;19;20375;-74
2023/09/03 10:50:05;;;;;;;3.25;1.65;;;24.70;1.00;;;;;;7392425;19;20026;-73
2023/09/03 10:52:42;;;;;;;1.58;1.10;;;24.60;1.00;;;;;;7393612;19;20038;-73
2023/09/03 10:55:20;;;;;;;3.60;1.70;;;24.50;1.00;;;;;;7392398;19;20512;-72
2023/09/03 10:58:11;;;;;;;5.30;1.40;;;24.90;1.00;;;;;;7393783;19;20526;-74
2023/09/03 11:00:41;;;;;;;1.95;1.33;;;25.20;1.00;;;;;;7391817;19;20010;-72
2023/09/03 11:03:18;;;;;;;1.67;1.52;;;24.90;1.00;;;;;;7393424;19;20002;-74
2023/09/03 11:06:20;;;;;;;1.50;1.40;;;24.80;1.00;;;;;;7393948;19;20034;-73
2023/09/03 11:09:25;;;;;;;1.95;1.27;;;24.80;1.00;;;;;;7393345;19;20022;-73
2023/09/03 11:12:03;;;;;;;3.35;1.70;;;24.60;1.00;;;;;;7391078;19;20018;-74
2023/09/03 11:14:35;;;;;;;3.00;2.05;;;24.90;1.00;;;;;;7392626;19;20003;-72
2023/09/03 11:17:13;;;;;;;2.75;1.63;;;24.90;1.00;;;;;;7391444;19;20019;-72
2023/09/03 11:19:45;;;;;;;2.95;1.60;;;24.80;1.00;;;;;;7393103;19;20044;-74
2023/09/03 11:22:16;;;;;;;1.95;1.60;;;24.90;1.00;;;;;;7392573;19;20022;-72
2023/09/03 11:24:51;;;;;;;1.75;1.60;;;24.90;1.00;;;;;;7393373;19;20332;-74
2023/09/03 11:27:21;;;;;;;2.55;1.70;;;25.50;1.00;;;;;;7392783;19;20014;-73
2023/09/03 11:29:51;;;;;;;1.90;1.50;;;25.50;1.00;;;;;;7392846;19;20011;-72
2023/09/03 11:32:37;;;;;;;2.00;1.80;;;25.50;1.00;;;;;;7391384;19;20017;-73
2023/09/03 11:35:08;;;;;;;3.58;2.10;;;25.20;1.00;;;;;;7391778;19;20010;-71
2023/09/03 11:37:38;;;;;;;2.83;2.00;;;25.10;1.00;;;;;;7392515;19;20011;-73
2023/09/03 11:40:13;;;;;;;2.35;1.80;;;25.10;1.00;;;;;;7391816;19;21514;-72
2023/09/03 11:42:48;;;;;;;3.42;1.73;;;25.10;1.00;;;;;;7392561;19;20045;-72
2023/09/03 11:45:19;;;;;;;2.40;1.80;;;25.10;1.00;;;;;;7392056;19;20007;-73
2023/09/03 11:47:50;;;;;;;2.85;1.77;;;24.90;1.00;;;;;;7392172;19;20085;-73
2023/09/03 11:50:20;;;;;;;2.40;1.65;;;24.70;1.00;;;;;;7389690;19;20082;-72
2023/09/03 11:52:51;;;;;;;3.67;2.22;;;24.70;1.00;;;;;;7391983;19;20589;-72
2023/09/03 11:55:26;;;;;;;2.10;1.50;;;25.10;1.00;;;;;;7390339;19;20027;-72
2023/09/03 11:57:58;;;;;;;3.05;1.75;;;24.60;1.00;;;;;;7391395;19;20027;-72
2023/09/03 12:00:28;;;;;;;4.00;1.58;;;25.10;1.00;;;;;;7391114;19;20101;-73
2023/09/03 12:02:59;;;;;;;2.00;1.50;;;25.40;1.00;;;;;;7392023;19;20121;-72
2023/09/03 12:05:30;;;;;;;3.97;1.50;;;25.40;1.00;;;;;;7387611;19;20097;-72
2023/09/03 12:08:04;;;;;;;1.67;1.50;;;25.30;1.00;;;;;;7391471;19;20029;-73
2023/09/03 12:10:37;;;;;;;2.80;1.60;;;25.30;1.00;;;;;;7387470;19;20485;-72
2023/09/03 12:13:12;;;;;;;1.73;1.58;;;25.10;1.00;;;;;;7391319;19;20018;-71
2023/09/03 12:15:42;;;;;;;2.03;1.60;;;25.20;1.00;;;;;;7390604;19;20031;-73
2023/09/03 12:18:12;;;;;;;1.77;1.50;;;25.10;1.00;;;;;;7386807;19;20010;-72
2023/09/03 12:20:50;;;;;;;1.45;1.30;;;25.10;1.00;;;;;;7386706;19;20082;-71
2023/09/03 12:23:20;;;;;;;3.30;1.30;;;25.50;1.00;;;;;;7386384;19;20035;-71
2023/09/03 12:25:53;;;;;;;2.60;1.20;;;25.30;1.00;;;;;;7387908;19;20107;-71
2023/09/03 12:28:36;;;;;;;1.50;1.33;;;25.20;1.00;;;;;;7390404;19;20092;-73
2023/09/03 12:31:08;;;;;;;1.88;1.10;;;25.00;1.00;;;;;;7395785;19;20018;-73
2023/09/03 12:33:49;;;;;;;1.10;0.98;;;24.90;1.00;;;;;;7395213;19;20014;-73
2023/09/03 12:36:21;;;;;;;1.73;1.20;;;24.80;1.00;;;;;;7392646;19;20048;-74
2023/09/03 12:38:55;;;;;;;1.55;1.30;;;25.20;1.00;;;;;;7394368;19;20014;-72
2023/09/03 12:41:31;;;;;;;1.33;1.10;;;25.70;1.00;;;;;;7387402;19;20352;-71
2023/09/03 12:44:07;;;;;;;1.15;0.95;;;25.40;1.00;;;;;;7391541;19;20027;-71
2023/09/03 12:46:37;;;;;;;2.22;1.33;;;25.30;1.00;;;;;;7397810;19;20010;-71
2023/09/03 12:49:08;;;;;;;1.42;0.98;;;25.60;1.00;;;;;;7397962;19;20023;-73
2023/09/03 12:51:39;;;;;;;1.40;1.05;;;25.50;1.00;;;;;;7395366;19;20470;-73
2023/09/03 12:54:09;;;;;;;2.35;1.27;;;25.60;1.00;;;;;;7397656;19;20497;-73
2023/09/03 12:56:42;;;;;;;1.95;1.00;;;25.70;1.00;;;;;;7395572;19;20491;-73
2023/09/03 12:59:11;;;;;;;1.00;0.90;;;25.50;1.00;;;;;;7397523;19;20010;-72
2023/09/03 13:01:42;;;;;;;3.63;1.02;;;25.80;1.00;;;;;;7395347;19;20031;-72
2023/09/03 13:04:15;;;;;;;2.22;1.00;;;25.70;1.00;;;;;;7396981;19;20010;-72
2023/09/03 13:06:45;;;;;;;1.73;1.27;;;25.60;1.00;;;;;;7397394;19;20035;-72
2023/09/03 13:09:15;;;;;;;2.72;2.10;;;25.30;1.00;;;;;;7397250;19;20018;-72
2023/09/03 13:11:47;;;;;;;2.15;1.00;;;25.50;1.00;;;;;;7395324;19;20003;-72
2023/09/03 13:14:17;;;;;;;1.85;1.40;;;25.80;1.00;;;;;;7396880;19;20014;-73